Terminal Aerodrome Forecast
Issued by NWS Denver/Boulder, CO

Home | Current Version | Previous Version | Text Only | Print | Product List | Glossary On
Versions: 1 2 3 4 5 6 7 8 9 10 11 12 13 14 15 16 17 18 19 20 21 22 23 24 25 26 27 28 29 30 31 32 33 34 35 36 37 38 39 40 41 42 43 44 45
000
FTUS45 KBOU 260707 AAA
TAFDEN
TAF AMD
KDEN 260707Z 2607/2712 31010KT P6SM FEW050 BKN100
     FM261000 33007KT P6SM SCT080 BKN140
     FM262000 03012KT P6SM SCT060 BKN110 PROB30 2622/2624 -SHRA
      BKN060
     FM270000 35010KT P6SM VCSH SCT020 OVC040
      TEMPO 2700/2704 -SHRA OVC020
     FM270900 33012KT P6SM SCT050 BKN100=

USA.gov is the U.S. government's official web portal to all federal, state and local government web resources and services.